Time;durP1;ratioP1;P1;durP2;ratioP2;P2;SDS_P1;SDS_P2;PMS_P1;PMS_P2;Temp;Humidity;BMP_temperature;BMP_pressure;BME280_temperature;BME280_humidity;BME280_pressure;Samples;Min_cycle;Max_cycle;Signal;HPM_P1;HPM_P2
2022/09/28 00:00:20;;;;;;;2.20;2.00;;;;;;;;;;5072753;28;20479;-62
2022/09/28 00:02:47;;;;;;;1.87;1.70;;;;;;;;;;5072647;28;20962;-62
2022/09/28 00:05:14;;;;;;;2.40;2.20;;;;;;;;;;5072650;28;20935;-62
2022/09/28 00:07:42;;;;;;;1.93;1.83;;;;;;;;;;5072921;28;20796;-62
2022/09/28 00:10:10;;;;;;;2.07;1.63;;;;;;;;;;5072794;28;20455;-62
2022/09/28 00:12:37;;;;;;;1.80;1.70;;;;;;;;;;5072719;28;20453;-62
2022/09/28 00:15:04;;;;;;;2.20;2.00;;;;;;;;;;5072530;28;20454;-62
2022/09/28 00:17:31;;;;;;;1.40;1.30;;;;;;;;;;5072835;28;20443;-62
2022/09/28 00:19:58;;;;;;;1.90;1.80;;;;;;;;;;5072701;28;20465;-62
2022/09/28 00:22:25;;;;;;;2.10;2.00;;;;;;;;;;5072398;28;20475;-62
2022/09/28 00:24:53;;;;;;;4.00;1.67;;;;;;;;;;5072655;28;20546;-62
2022/09/28 00:27:20;;;;;;;1.83;1.73;;;;;;;;;;5072534;28;20471;-62
2022/09/28 00:29:47;;;;;;;2.30;2.00;;;;;;;;;;5072580;28;20869;-62
2022/09/28 00:32:15;;;;;;;1.73;1.63;;;;;;;;;;5072675;28;20448;-62
2022/09/28 00:34:44;;;;;;;2.60;1.47;;;;;;;;;;5072547;28;20461;-62
2022/09/28 00:37:12;;;;;;;2.90;1.80;;;;;;;;;;5072623;28;20447;-62
2022/09/28 00:39:40;;;;;;;1.77;1.40;;;;;;;;;;5072485;28;20884;-62
2022/09/28 00:42:12;;;;;;;2.13;2.03;;;;;;;;;;5072427;28;20462;-62
2022/09/28 00:44:47;;;;;;;1.83;1.73;;;;;;;;;;5072599;28;20447;-62
2022/09/28 00:47:20;;;;;;;2.07;1.97;;;;;;;;;;5072500;28;20534;-62
2022/09/28 00:49:49;;;;;;;2.53;2.00;;;;;;;;;;5072272;28;20947;-62
2022/09/28 00:52:19;;;;;;;2.00;1.90;;;;;;;;;;5072347;28;20479;-62
2022/09/28 00:54:48;;;;;;;1.70;1.60;;;;;;;;;;5072227;28;20483;-62
2022/09/28 00:57:16;;;;;;;1.90;1.80;;;;;;;;;;5072431;28;20450;-62
2022/09/28 00:59:43;;;;;;;1.90;1.80;;;;;;;;;;5072135;28;20931;-62
2022/09/28 01:02:10;;;;;;;1.67;1.57;;;;;;;;;;5072304;28;20447;-62
2022/09/28 01:04:37;;;;;;;2.80;2.30;;;;;;;;;;5072213;28;20447;-62
2022/09/28 01:07:04;;;;;;;2.00;1.90;;;;;;;;;;5072088;28;20458;-62
2022/09/28 01:09:32;;;;;;;1.90;1.80;;;;;;;;;;5075141;28;20542;-62
2022/09/28 01:11:59;;;;;;;1.90;1.80;;;;;;;;;;5076014;28;20834;-62
2022/09/28 01:14:27;;;;;;;2.33;1.70;;;;;;;;;;5075826;28;20900;-62
2022/09/28 01:16:58;;;;;;;1.80;1.70;;;;;;;;;;5075773;28;20447;-62
2022/09/28 01:19:33;;;;;;;1.60;1.50;;;;;;;;;;5075688;28;20451;-62
2022/09/28 01:22:06;;;;;;;2.20;1.70;;;;;;;;;;5075496;28;20504;-62
2022/09/28 01:24:39;;;;;;;3.20;1.93;;;;;;;;;;5075695;28;20451;-62
2022/09/28 01:27:11;;;;;;;2.03;1.93;;;;;;;;;;5075750;28;20451;-62
2022/09/28 01:29:42;;;;;;;2.07;1.97;;;;;;;;;;5075560;28;20451;-62
2022/09/28 01:32:13;;;;;;;4.13;1.80;;;;;;;;;;5075473;28;20809;-62
2022/09/28 01:34:43;;;;;;;1.97;1.83;;;;;;;;;;5075517;28;20452;-62
2022/09/28 01:37:12;;;;;;;2.37;2.00;;;;;;;;;;5075523;28;20478;-62
2022/09/28 01:39:40;;;;;;;2.67;2.00;;;;;;;;;;5075419;28;20837;-62
2022/09/28 01:42:11;;;;;;;2.10;2.00;;;;;;;;;;5075231;28;20490;-62
2022/09/28 01:44:40;;;;;;;2.33;2.23;;;;;;;;;;5075122;28;20453;-62
2022/09/28 01:47:08;;;;;;;2.77;2.50;;;;;;;;;;5075360;28;20539;-62
2022/09/28 01:49:38;;;;;;;3.17;2.30;;;;;;;;;;5075320;28;20452;-62
2022/09/28 01:52:07;;;;;;;3.20;2.77;;;;;;;;;;5075227;28;20473;-62
2022/09/28 01:54:36;;;;;;;3.57;2.60;;;;;;;;;;5075051;28;20788;-62
2022/09/28 01:57:08;;;;;;;2.80;2.60;;;;;;;;;;5074975;28;20443;-62
2022/09/28 01:59:37;;;;;;;2.47;2.27;;;;;;;;;;5075200;28;20451;-62
2022/09/28 02:02:07;;;;;;;2.90;2.70;;;;;;;;;;5074960;28;20483;-62
2022/09/28 02:04:38;;;;;;;3.27;3.07;;;;;;;;;;5074931;28;20453;-62
2022/09/28 02:07:08;;;;;;;2.70;2.50;;;;;;;;;;5074899;28;20447;-62
2022/09/28 02:09:36;;;;;;;2.87;2.67;;;;;;;;;;5074695;28;20802;-62
2022/09/28 02:12:05;;;;;;;3.10;2.83;;;;;;;;;;5075160;28;20439;-62
2022/09/28 02:14:32;;;;;;;3.50;3.13;;;;;;;;;;5074574;28;20447;-62
2022/09/28 02:17:00;;;;;;;5.73;3.77;;;;;;;;;;5074759;28;20443;-62
2022/09/28 02:19:30;;;;;;;3.33;2.97;;;;;;;;;;5074319;28;20450;-62
2022/09/28 02:22:00;;;;;;;3.53;3.27;;;;;;;;;;5074080;28;20513;-62
2022/09/28 02:24:29;;;;;;;3.57;3.27;;;;;;;;;;5074372;28;20453;-62
2022/09/28 02:26:57;;;;;;;5.93;3.57;;;;;;;;;;5074589;28;20447;-62
2022/09/28 02:29:24;;;;;;;9.03;3.80;;;;;;;;;;5074379;28;20451;-62
2022/09/28 02:31:52;;;;;;;4.30;3.20;;;;;;;;;;5074376;28;20451;-62
2022/09/28 02:34:19;;;;;;;4.03;3.33;;;;;;;;;;5074319;28;20443;-62
2022/09/28 02:36:47;;;;;;;3.37;3.07;;;;;;;;;;5074155;28;20914;-62
2022/09/28 02:39:15;;;;;;;3.67;3.30;;;;;;;;;;5074325;28;20447;-62
2022/09/28 02:41:49;;;;;;;3.77;3.47;;;;;;;;;;5074147;28;20483;-62
2022/09/28 02:44:24;;;;;;;4.17;3.63;;;;;;;;;;5074191;28;20550;-62
2022/09/28 02:46:56;;;;;;;6.87;4.30;;;;;;;;;;5074051;28;20451;-62
2022/09/28 02:49:25;;;;;;;3.80;3.47;;;;;;;;;;5073916;28;20923;-62
2022/09/28 02:52:01;;;;;;;5.03;3.90;;;;;;;;;;5074080;28;20521;-62
2022/09/28 02:54:34;;;;;;;3.63;3.40;;;;;;;;;;5073925;28;20458;-62
2022/09/28 02:57:08;;;;;;;9.20;3.90;;;;;;;;;;5073779;28;20458;-62
2022/09/28 02:59:44;;;;;;;3.97;3.57;;;;;;;;;;5073783;28;20549;-62
2022/09/28 03:02:14;;;;;;;6.70;3.80;;;;;;;;;;5073852;28;20481;-62
2022/09/28 03:04:45;;;;;;;4.20;3.43;;;;;;;;;;5073772;28;20443;-62
2022/09/28 03:07:17;;;;;;;4.17;3.87;;;;;;;;;;5073728;28;20454;-62
2022/09/28 03:09:47;;;;;;;3.90;3.53;;;;;;;;;;5073693;28;20443;-62
2022/09/28 03:12:15;;;;;;;3.93;3.70;;;;;;;;;;5073477;28;20453;-62
2022/09/28 03:14:42;;;;;;;3.70;3.50;;;;;;;;;;5073582;28;20593;-62
2022/09/28 03:17:09;;;;;;;4.83;4.10;;;;;;;;;;5073509;28;20443;-62
2022/09/28 03:19:36;;;;;;;4.60;3.50;;;;;;;;;;5073713;28;20450;-62
2022/09/28 03:22:04;;;;;;;4.30;3.97;;;;;;;;;;5073404;28;20487;-62
2022/09/28 03:24:32;;;;;;;3.43;3.23;;;;;;;;;;5073354;28;20497;-62
2022/09/28 03:26:59;;;;;;;3.47;3.20;;;;;;;;;;5073659;28;20539;-62
2022/09/28 03:29:30;;;;;;;4.40;4.00;;;;;;;;;;5073219;28;20457;-62
2022/09/28 03:31:57;;;;;;;3.83;3.53;;;;;;;;;;5072290;28;20543;-62
2022/09/28 03:34:24;;;;;;;3.63;3.33;;;;;;;;;;5073128;28;20538;-62
2022/09/28 03:36:50;;;;;;;5.93;3.53;;;;;;;;;;5073174;28;20469;-62
2022/09/28 03:39:17;;;;;;;3.77;3.43;;;;;;;;;;5073038;28;20454;-62
2022/09/28 03:41:46;;;;;;;3.70;3.40;;;;;;;;;;5073201;28;20485;-62
2022/09/28 03:44:12;;;;;;;3.80;3.50;;;;;;;;;;5072923;28;20953;-62
2022/09/28 03:46:39;;;;;;;4.20;3.50;;;;;;;;;;5073067;28;20535;-62
2022/09/28 03:49:06;;;;;;;3.33;3.03;;;;;;;;;;5072959;28;20443;-62
2022/09/28 03:51:33;;;;;;;8.53;4.40;;;;;;;;;;5072944;28;20892;-62
2022/09/28 03:54:00;;;;;;;3.83;3.43;;;;;;;;;;5073511;28;20459;-62
2022/09/28 03:56:27;;;;;;;3.43;3.23;;;;;;;;;;5073035;28;20446;-62
2022/09/28 03:58:56;;;;;;;3.53;3.23;;;;;;;;;;5073230;28;20446;-62
2022/09/28 04:01:23;;;;;;;7.93;4.57;;;;;;;;;;5072805;28;20483;-62
2022/09/28 04:03:54;;;;;;;10.97;3.60;;;;;;;;;;5072838;28;20505;-62
2022/09/28 04:06:20;;;;;;;3.27;2.97;;;;;;;;;;5072789;28;20446;-62
2022/09/28 04:08:47;;;;;;;5.60;4.37;;;;;;;;;;5072900;28;20450;-62
2022/09/28 04:11:14;;;;;;;5.30;3.80;;;;;;;;;;5072791;28;20473;-62
2022/09/28 04:13:42;;;;;;;3.80;3.50;;;;;;;;;;5072734;28;20454;-62
2022/09/28 04:16:11;;;;;;;4.03;3.73;;;;;;;;;;5072768;28;20506;-62
2022/09/28 04:18:38;;;;;;;3.97;3.60;;;;;;;;;;5072661;28;20542;-62
2022/09/28 04:21:06;;;;;;;3.60;3.30;;;;;;;;;;5072341;28;20586;-62
2022/09/28 04:23:34;;;;;;;3.93;3.30;;;;;;;;;;5072702;28;20501;-62
2022/09/28 04:26:01;;;;;;;3.53;2.80;;;;;;;;;;5072713;28;20535;-62
2022/09/28 04:31:17;;;;;;;6.63;3.80;;;;;;;;;;5072533;28;20850;-62
2022/09/28 04:33:44;;;;;;;5.10;3.40;;;;;;;;;;5072719;28;20451;-62
2022/09/28 04:36:11;;;;;;;3.50;3.20;;;;;;;;;;5072616;28;20492;-62
2022/09/28 04:38:38;;;;;;;8.23;4.43;;;;;;;;;;5072502;28;20876;-62
2022/09/28 04:41:05;;;;;;;4.80;3.70;;;;;;;;;;5072376;28;20451;-62
2022/09/28 04:43:32;;;;;;;4.83;4.00;;;;;;;;;;5073629;28;20447;-62
2022/09/28 04:46:00;;;;;;;4.20;3.80;;;;;;;;;;5076232;28;20449;-62
2022/09/28 04:48:28;;;;;;;7.60;4.37;;;;;;;;;;5076214;28;20452;-62
2022/09/28 04:50:55;;;;;;;8.10;5.10;;;;;;;;;;5076273;28;20462;-62
2022/09/28 04:53:22;;;;;;;4.80;4.40;;;;;;;;;;5076212;28;20473;-62
2022/09/28 04:55:55;;;;;;;6.60;5.33;;;;;;;;;;5076088;28;20447;-61
2022/09/28 04:58:23;;;;;;;5.53;4.30;;;;;;;;;;5076040;28;20447;-62
2022/09/28 05:00:50;;;;;;;3.80;3.33;;;;;;;;;;5076230;28;20455;-62
2022/09/28 05:03:17;;;;;;;6.07;3.70;;;;;;;;;;5076009;28;20481;-62
2022/09/28 05:05:46;;;;;;;5.27;4.30;;;;;;;;;;5076014;28;20538;-62
2022/09/28 05:08:12;;;;;;;4.70;3.90;;;;;;;;;;5075882;28;20508;-62
2022/09/28 05:10:40;;;;;;;4.87;4.37;;;;;;;;;;5075662;28;20447;-62
2022/09/28 05:13:07;;;;;;;4.67;4.20;;;;;;;;;;5075522;28;20789;-62
2022/09/28 05:15:34;;;;;;;4.40;3.90;;;;;;;;;;5075750;28;20439;-62
2022/09/28 05:18:01;;;;;;;4.30;3.90;;;;;;;;;;5075567;28;20974;-62
2022/09/28 05:20:28;;;;;;;3.60;3.30;;;;;;;;;;5075745;28;20921;-62
2022/09/28 05:22:56;;;;;;;3.57;3.37;;;;;;;;;;5075247;28;20838;-62
2022/09/28 05:25:23;;;;;;;4.27;3.73;;;;;;;;;;5075413;28;20451;-62
2022/09/28 05:27:55;;;;;;;3.90;3.60;;;;;;;;;;5075762;28;20794;-62
2022/09/28 05:30:22;;;;;;;4.07;3.70;;;;;;;;;;5075652;28;20447;-62
2022/09/28 05:32:50;;;;;;;5.17;3.83;;;;;;;;;;5075543;28;20447;-62
2022/09/28 05:35:17;;;;;;;4.20;3.63;;;;;;;;;;5075473;28;20455;-62
2022/09/28 05:37:44;;;;;;;4.20;3.90;;;;;;;;;;5075319;28;20443;-62
2022/09/28 05:40:12;;;;;;;4.17;3.30;;;;;;;;;;5075214;28;20484;-62
2022/09/28 05:42:40;;;;;;;4.10;3.70;;;;;;;;;;5075285;28;20609;-62
2022/09/28 05:45:07;;;;;;;4.57;4.20;;;;;;;;;;5075124;28;20455;-61
2022/09/28 05:47:37;;;;;;;4.43;4.03;;;;;;;;;;5075147;28;20452;-62
2022/09/28 05:50:05;;;;;;;4.93;3.50;;;;;;;;;;5075120;28;20753;-62
2022/09/28 05:52:31;;;;;;;4.00;3.70;;;;;;;;;;5075083;28;20447;-62
2022/09/28 05:54:58;;;;;;;4.50;4.10;;;;;;;;;;5074163;28;20450;-62
2022/09/28 05:57:27;;;;;;;4.50;4.17;;;;;;;;;;5075004;28;20458;-62
2022/09/28 05:59:54;;;;;;;3.43;3.23;;;;;;;;;;5075082;28;20818;-62
2022/09/28 06:02:20;;;;;;;4.50;4.20;;;;;;;;;;5074833;28;20490;-62
2022/09/28 06:04:49;;;;;;;4.87;4.37;;;;;;;;;;5074869;28;20454;-62
2022/09/28 06:07:17;;;;;;;3.53;3.33;;;;;;;;;;5074699;28;20444;-62
2022/09/28 06:09:43;;;;;;;3.83;3.43;;;;;;;;;;5074616;28;20454;-62
2022/09/28 06:12:10;;;;;;;8.30;4.00;;;;;;;;;;5074807;28;20810;-62
2022/09/28 06:14:39;;;;;;;3.37;3.17;;;;;;;;;;5074680;28;20479;-62
2022/09/28 06:17:06;;;;;;;4.87;4.00;;;;;;;;;;5074431;28;20934;-62
2022/09/28 06:19:32;;;;;;;12.90;4.17;;;;;;;;;;5074587;28;20447;-62
2022/09/28 06:21:59;;;;;;;3.90;3.60;;;;;;;;;;5074276;28;20483;-62
2022/09/28 06:24:26;;;;;;;4.40;4.00;;;;;;;;;;5074574;28;20483;-62
2022/09/28 06:26:53;;;;;;;3.87;3.57;;;;;;;;;;5074461;28;20448;-62
2022/09/28 06:29:20;;;;;;;4.60;4.20;;;;;;;;;;5074415;28;20448;-62
2022/09/28 06:31:48;;;;;;;5.20;4.80;;;;;;;;;;5074025;28;20913;-62
2022/09/28 06:34:16;;;;;;;6.70;5.07;;;;;;;;;;5074033;28;20534;-62
2022/09/28 06:36:42;;;;;;;5.43;5.03;;;;;;;;;;5074306;28;20443;-62
2022/09/28 06:39:09;;;;;;;5.53;5.03;;;;;;;;;;5074232;28;20448;-62
2022/09/28 06:41:36;;;;;;;5.30;4.80;;;;;;;;;;5073811;28;20444;-62
2022/09/28 06:44:03;;;;;;;5.80;5.00;;;;;;;;;;5073848;28;20824;-62
2022/09/28 06:46:31;;;;;;;6.00;4.60;;;;;;;;;;5073861;28;20453;-62
2022/09/28 06:48:59;;;;;;;4.40;4.10;;;;;;;;;;5073788;28;20443;-62
2022/09/28 06:51:26;;;;;;;4.40;4.00;;;;;;;;;;5073896;28;20517;-62
2022/09/28 06:53:54;;;;;;;5.17;4.33;;;;;;;;;;5073745;28;20447;-62
2022/09/28 06:56:21;;;;;;;5.23;4.73;;;;;;;;;;5073683;28;20926;-62
2022/09/28 06:58:48;;;;;;;4.70;4.20;;;;;;;;;;5073766;28;20487;-62
2022/09/28 07:01:15;;;;;;;4.07;3.77;;;;;;;;;;5073662;28;20443;-62
2022/09/28 07:03:42;;;;;;;4.67;4.20;;;;;;;;;;5073442;28;20489;-62
2022/09/28 07:06:11;;;;;;;4.57;3.87;;;;;;;;;;5073567;28;20533;-62
2022/09/28 07:08:38;;;;;;;4.73;4.33;;;;;;;;;;5073589;28;20447;-62
2022/09/28 07:11:06;;;;;;;4.60;4.30;;;;;;;;;;5073525;28;20447;-62
2022/09/28 07:13:33;;;;;;;4.70;4.30;;;;;;;;;;5073495;28;20978;-62
2022/09/28 07:16:00;;;;;;;6.83;4.17;;;;;;;;;;5073340;28;21019;-62
2022/09/28 07:18:27;;;;;;;4.63;4.23;;;;;;;;;;5073493;28;20504;-62
2022/09/28 07:20:56;;;;;;;5.23;4.73;;;;;;;;;;5073118;28;20970;-62
2022/09/28 07:23:26;;;;;;;5.27;4.77;;;;;;;;;;5073183;28;20513;-62
2022/09/28 07:25:53;;;;;;;8.13;5.63;;;;;;;;;;5073340;28;20450;-62
2022/09/28 07:28:20;;;;;;;4.60;4.30;;;;;;;;;;5073034;28;20447;-62
2022/09/28 07:30:47;;;;;;;4.47;4.00;;;;;;;;;;5073054;28;20447;-62
2022/09/28 07:33:15;;;;;;;5.60;4.53;;;;;;;;;;5073266;28;20477;-62
2022/09/28 07:35:42;;;;;;;5.17;4.73;;;;;;;;;;5073266;28;20807;-62
2022/09/28 07:38:10;;;;;;;5.47;5.03;;;;;;;;;;5073221;28;20443;-62
2022/09/28 07:43:24;;;;;;;4.60;4.20;;;;;;;;;;5072946;28;21013;-62
2022/09/28 07:45:51;;;;;;;5.40;4.90;;;;;;;;;;5072974;28;20942;-62
2022/09/28 07:48:19;;;;;;;5.27;4.77;;;;;;;;;;5073063;28;20455;-62
2022/09/28 07:50:48;;;;;;;5.20;4.77;;;;;;;;;;5073022;28;20444;-62
2022/09/28 07:53:14;;;;;;;5.00;4.63;;;;;;;;;;5072887;28;21167;-62
2022/09/28 07:55:43;;;;;;;5.70;5.20;;;;;;;;;;5072728;28;20447;-62
2022/09/28 07:58:10;;;;;;;4.73;4.33;;;;;;;;;;5072961;28;20549;-62
2022/09/28 08:00:37;;;;;;;5.17;4.60;;;;;;;;;;5072956;28;20802;-62
2022/09/28 08:03:04;;;;;;;17.33;6.23;;;;;;;;;;5072755;28;20479;-62
2022/09/28 08:05:34;;;;;;;6.27;5.67;;;;;;;;;;5072801;28;20808;-62
2022/09/28 08:08:02;;;;;;;5.43;4.90;;;;;;;;;;5072599;28;20508;-62
2022/09/28 08:10:30;;;;;;;14.53;5.93;;;;;;;;;;5072618;28;20970;-62
2022/09/28 08:13:02;;;;;;;5.10;4.70;;;;;;;;;;5072806;28;20447;-62
2022/09/28 08:15:32;;;;;;;5.77;5.27;;;;;;;;;;5072749;28;20522;-62
2022/09/28 08:17:59;;;;;;;6.27;5.37;;;;;;;;;;5074404;28;20447;-62
2022/09/28 08:23:11;;;;;;;5.70;5.30;;;;;;;;;;5079004;28;20516;-60
2022/09/28 08:25:38;;;;;;;6.43;5.20;;;;;;;;;;5079321;28;20462;-61
2022/09/28 08:28:06;;;;;;;6.27;5.23;;;;;;;;;;5079281;28;20446;-61
2022/09/28 08:30:34;;;;;;;8.50;4.70;;;;;;;;;;5079097;28;20965;-61
2022/09/28 08:33:01;;;;;;;5.50;5.10;;;;;;;;;;5078931;28;20869;-62
2022/09/28 08:35:28;;;;;;;5.27;4.77;;;;;;;;;;5078961;28;20964;-61
2022/09/28 08:37:54;;;;;;;5.00;4.60;;;;;;;;;;5079123;28;20455;-61
2022/09/28 08:40:23;;;;;;;4.43;4.13;;;;;;;;;;5079173;28;20446;-61
2022/09/28 08:42:52;;;;;;;5.03;4.63;;;;;;;;;;5078724;28;20475;-61
2022/09/28 08:45:22;;;;;;;4.47;4.03;;;;;;;;;;5078953;28;20531;-61
2022/09/28 08:50:42;;;;;;;4.63;4.23;;;;;;;;;;5078982;28;20980;-61
2022/09/28 08:53:17;;;;;;;4.63;4.17;;;;;;;;;;5079011;28;20483;-61
2022/09/28 08:55:45;;;;;;;4.27;3.97;;;;;;;;;;5078828;28;20461;-61
2022/09/28 08:58:14;;;;;;;5.00;3.70;;;;;;;;;;5079119;28;20451;-61
2022/09/28 09:00:45;;;;;;;5.10;4.33;;;;;;;;;;5079060;28;20814;-61
2022/09/28 09:03:13;;;;;;;4.53;4.13;;;;;;;;;;5078720;28;20970;-61
2022/09/28 09:05:46;;;;;;;4.57;4.10;;;;;;;;;;5078865;28;20548;-61
2022/09/28 09:08:22;;;;;;;4.23;3.87;;;;;;;;;;5078780;28;20447;-61
2022/09/28 09:10:51;;;;;;;3.87;3.57;;;;;;;;;;5078970;28;20543;-61
2022/09/28 09:13:30;;;;;;;4.13;3.70;;;;;;;;;;5078839;28;20453;-61
2022/09/28 09:16:02;;;;;;;4.23;3.10;;;;;;;;;;5078690;28;20486;-61
2022/09/28 09:18:35;;;;;;;4.57;2.90;;;;;;;;;;5078787;28;20543;-61
2022/09/28 09:21:06;;;;;;;3.00;2.80;;;;;;;;;;5078516;28;20482;-61
2022/09/28 09:23:37;;;;;;;3.57;3.33;;;;;;;;;;5078755;28;20482;-61
2022/09/28 09:26:08;;;;;;;5.20;3.20;;;;;;;;;;5078755;28;20508;-61
2022/09/28 09:28:55;;;;;;;3.23;2.90;;;;;;;;;;5078750;28;20450;-61
2022/09/28 09:31:29;;;;;;;4.00;3.10;;;;;;;;;;5075327;28;20443;-62
2022/09/28 09:34:14;;;;;;;4.57;3.60;;;;;;;;;;5075473;28;20454;-62
2022/09/28 09:36:49;;;;;;;3.97;2.73;;;;;;;;;;5075126;28;20443;-61
2022/09/28 09:39:25;;;;;;;3.77;2.87;;;;;;;;;;5075187;28;20458;-61
2022/09/28 09:42:02;;;;;;;3.67;3.30;;;;;;;;;;5075036;28;20799;-61
2022/09/28 09:44:42;;;;;;;4.23;3.00;;;;;;;;;;5074993;28;20483;-61
2022/09/28 09:47:13;;;;;;;3.43;2.57;;;;;;;;;;5075330;28;20457;-61
2022/09/28 09:49:43;;;;;;;2.60;2.20;;;;;;;;;;5075183;28;20459;-61
2022/09/28 09:52:14;;;;;;;2.43;2.33;;;;;;;;;;5075262;28;20446;-62
2022/09/28 09:54:44;;;;;;;2.90;2.27;;;;;;;;;;5075256;28;20447;-61
2022/09/28 09:57:13;;;;;;;1.60;1.50;;;;;;;;;;5075199;28;20444;-61
2022/09/28 09:59:41;;;;;;;3.30;1.67;;;;;;;;;;5075056;28;20748;-61
2022/09/28 10:02:16;;;;;;;1.77;1.30;;;;;;;;;;5074957;28;20454;-61
2022/09/28 10:04:45;;;;;;;1.80;1.30;;;;;;;;;;5074630;28;20489;-61
2022/09/28 10:07:16;;;;;;;1.73;1.40;;;;;;;;;;5074949;28;20802;-61
2022/09/28 10:09:45;;;;;;;1.30;1.20;;;;;;;;;;5074984;28;20457;-61
2022/09/28 10:12:14;;;;;;;1.73;1.40;;;;;;;;;;5074763;28;20459;-61
2022/09/28 10:14:41;;;;;;;1.03;0.90;;;;;;;;;;5074632;28;20451;-61
2022/09/28 10:17:10;;;;;;;1.43;1.03;;;;;;;;;;5074446;28;20811;-61
2022/09/28 10:19:38;;;;;;;1.10;1.00;;;;;;;;;;5074687;28;20934;-62
2022/09/28 10:22:06;;;;;;;1.90;1.20;;;;;;;;;;5074425;28;20481;-62
2022/09/28 10:24:35;;;;;;;1.43;1.27;;;;;;;;;;5074460;28;20483;-61
2022/09/28 10:27:05;;;;;;;1.30;1.03;;;;;;;;;;5074498;28;20733;-61
2022/09/28 10:29:38;;;;;;;2.20;1.20;;;;;;;;;;5074301;28;20483;-61
2022/09/28 10:32:17;;;;;;;2.60;1.20;;;;;;;;;;5074579;28;20447;-61
2022/09/28 10:34:45;;;;;;;1.30;1.20;;;;;;;;;;5074653;28;20450;-61
2022/09/28 10:37:13;;;;;;;1.10;1.00;;;;;;;;;;5074212;28;20968;-61
2022/09/28 10:39:45;;;;;;;1.50;0.90;;;;;;;;;;5074135;28;20860;-61
2022/09/28 10:42:13;;;;;;;1.10;1.00;;;;;;;;;;5073605;28;20534;-62
2022/09/28 10:44:51;;;;;;;3.00;1.57;;;;;;;;;;5073995;28;20564;-62
2022/09/28 10:47:19;;;;;;;4.07;1.40;;;;;;;;;;5074327;28;20452;-63
2022/09/28 10:49:49;;;;;;;1.97;1.87;;;;;;;;;;5074002;28;20546;-62
2022/09/28 10:52:33;;;;;;;1.90;1.80;;;;;;;;;;5074154;28;20447;-64
2022/09/28 10:55:00;;;;;;;2.30;1.53;;;;;;;;;;5074022;28;20895;-61
2022/09/28 10:57:29;;;;;;;2.57;2.30;;;;;;;;;;5068883;28;20964;-61
2022/09/28 10:59:56;;;;;;;2.37;2.00;;;;;;;;;;5065161;28;20523;-61
2022/09/28 11:02:24;;;;;;;2.87;2.57;;;;;;;;;;5063649;28;20455;-61
2022/09/28 11:04:54;;;;;;;2.53;1.70;;;;;;;;;;5064554;28;20912;-62
2022/09/28 11:07:23;;;;;;;3.33;2.43;;;;;;;;;;5065286;28;20977;-60
2022/09/28 11:09:51;;;;;;;1.97;1.87;;;;;;;;;;5070100;28;20459;-60
2022/09/28 11:12:20;;;;;;;1.80;1.70;;;;;;;;;;5073392;28;20454;-60
2022/09/28 11:14:51;;;;;;;4.57;2.07;;;;;;;;;;5070228;28;20479;-60
2022/09/28 11:17:19;;;;;;;2.10;1.90;;;;;;;;;;5059844;28;21045;-61
2022/09/28 11:19:46;;;;;;;3.90;3.57;;;;;;;;;;5053262;28;20560;-62
2022/09/28 11:22:27;;;;;;;2.90;2.30;;;;;;;;;;5057959;28;20483;-60
2022/09/28 11:25:13;;;;;;;2.30;2.20;;;;;;;;;;5073390;28;20528;-59
2022/09/28 11:27:40;;;;;;;2.37;2.10;;;;;;;;;;5072346;28;20523;-59
2022/09/28 11:30:21;;;;;;;3.83;3.27;;;;;;;;;;5060464;28;20536;-60
2022/09/28 11:32:48;;;;;;;3.10;2.90;;;;;;;;;;5070040;28;20538;-63
2022/09/28 11:35:18;;;;;;;3.30;3.10;;;;;;;;;;5071856;28;21000;-58
2022/09/28 11:38:03;;;;;;;3.40;3.10;;;;;;;;;;5072906;28;20447;-58
2022/09/28 11:40:35;;;;;;;2.27;2.17;;;;;;;;;;5070338;28;20538;-58
2022/09/28 11:43:07;;;;;;;2.30;2.20;;;;;;;;;;5054500;28;21780;-59
2022/09/28 11:45:40;;;;;;;2.87;2.20;;;;;;;;;;5073016;28;20497;-56
2022/09/28 11:48:10;;;;;;;2.57;1.93;;;;;;;;;;5070749;28;20462;-56
2022/09/28 11:50:43;;;;;;;4.00;3.70;;;;;;;;;;5061578;28;20943;-60
2022/09/28 11:53:17;;;;;;;2.07;1.97;;;;;;;;;;5066737;28;20954;-58
2022/09/28 11:55:45;;;;;;;2.27;2.07;;;;;;;;;;5068859;28;21056;-58
2022/09/28 11:58:15;;;;;;;2.33;1.43;;;;;;;;;;5060043;28;20535;-58
2022/09/28 12:00:45;;;;;;;2.20;1.47;;;;;;;;;;5068163;28;20456;-59
2022/09/28 12:03:14;;;;;;;1.67;1.37;;;;;;;;;;5063623;28;20513;-59
2022/09/28 12:05:45;;;;;;;2.40;1.33;;;;;;;;;;5066459;28;20550;-60
2022/09/28 12:08:16;;;;;;;2.10;1.90;;;;;;;;;;5064959;28;20812;-60
2022/09/28 12:10:47;;;;;;;2.00;1.90;;;;;;;;;;5052749;28;20531;-61
2022/09/28 12:13:17;;;;;;;2.23;1.60;;;;;;;;;;5064229;28;20456;-58
2022/09/28 12:15:46;;;;;;;2.40;2.08;;;;;;;;;;5069674;28;20453;-59
2022/09/28 12:18:18;;;;;;;2.03;1.83;;;;;;;;;;5070395;28;20190;-59
2022/09/28 12:20:47;;;;;;;2.43;2.33;;;;;;;;;;5069731;28;20463;-54
2022/09/28 12:23:16;;;;;;;6.37;1.80;;;;;;;;;;5070922;28;20457;-57
2022/09/28 12:25:45;;;;;;;2.10;1.90;;;;;;;;;;5070886;28;20455;-60
2022/09/28 12:28:16;;;;;;;1.80;1.70;;;;;;;;;;5071423;28;20462;-59
2022/09/28 12:30:44;;;;;;;2.10;2.00;;;;;;;;;;5069003;28;20458;-64
2022/09/28 12:33:12;;;;;;;1.80;1.70;;;;;;;;;;5071419;28;20193;-64
2022/09/28 12:35:46;;;;;;;1.93;1.40;;;;;;;;;;5052493;28;20807;-64
2022/09/28 12:38:23;;;;;;;1.87;1.70;;;;;;;;;;5052121;28;20977;-64
2022/09/28 12:40:53;;;;;;;1.90;1.80;;;;;;;;;;5070556;28;20458;-59
2022/09/28 12:43:33;;;;;;;2.30;2.10;;;;;;;;;;5066290;28;20451;-60
2022/09/28 12:46:06;;;;;;;1.57;1.47;;;;;;;;;;5072078;28;20495;-62
2022/09/28 12:48:39;;;;;;;1.30;1.20;;;;;;;;;;5071838;28;20443;-62
2022/09/28 12:51:11;;;;;;;1.50;1.40;;;;;;;;;;5055382;28;20534;-62
2022/09/28 12:53:49;;;;;;;2.13;1.37;;;;;;;;;;5071273;28;20447;-64
2022/09/28 12:56:19;;;;;;;2.17;2.00;;;;;;;;;;5072432;28;20966;-60
2022/09/28 12:58:52;;;;;;;2.03;1.70;;;;;;;;;;5071047;28;20450;-62
2022/09/28 13:01:26;;;;;;;2.27;2.17;;;;;;;;;;5067463;28;20447;-62
2022/09/28 13:04:03;;;;;;;1.70;1.60;;;;;;;;;;5068392;28;20783;-60
2022/09/28 13:06:48;;;;;;;1.60;1.50;;;;;;;;;;5070113;28;21394;-62
2022/09/28 13:09:22;;;;;;;2.23;2.03;;;;;;;;;;5067953;28;20463;-61
2022/09/28 13:11:54;;;;;;;6.60;2.10;;;;;;;;;;5074773;28;20460;-64
2022/09/28 13:14:30;;;;;;;1.87;1.77;;;;;;;;;;5070896;28;20494;-62
2022/09/28 13:17:00;;;;;;;3.50;2.30;;;;;;;;;;5071383;28;20538;-63
2022/09/28 13:19:31;;;;;;;1.90;1.63;;;;;;;;;;5072807;28;20483;-59
2022/09/28 13:22:01;;;;;;;1.80;1.70;;;;;;;;;;5075570;28;20479;-61
2022/09/28 13:24:33;;;;;;;1.73;1.63;;;;;;;;;;5069506;28;20484;-61
2022/09/28 13:27:04;;;;;;;2.23;2.03;;;;;;;;;;5055526;28;20452;-59
2022/09/28 13:29:33;;;;;;;1.50;1.40;;;;;;;;;;5055555;28;20475;-60
2022/09/28 13:32:02;;;;;;;1.70;1.40;;;;;;;;;;5062431;28;20451;-59
2022/09/28 13:34:30;;;;;;;1.95;1.30;;;;;;;;;;5064242;28;21008;-57
2022/09/28 13:37:10;;;;;;;1.87;1.23;;;;;;;;;;5055364;28;20189;-58
2022/09/28 13:39:47;;;;;;;1.30;1.20;;;;;;;;;;5068482;28;20544;-58
2022/09/28 13:42:23;;;;;;;1.33;1.23;;;;;;;;;;5075429;28;20451;-58
2022/09/28 13:45:00;;;;;;;1.40;1.30;;;;;;;;;;5075099;28;21001;-57
2022/09/28 13:47:38;;;;;;;1.93;1.83;;;;;;;;;;5075183;28;20480;-59
2022/09/28 13:50:12;;;;;;;1.37;1.27;;;;;;;;;;5075377;28;20443;-57
2022/09/28 13:52:44;;;;;;;1.50;1.30;;;;;;;;;;5075373;28;20534;-58
2022/09/28 13:55:17;;;;;;;4.03;1.70;;;;;;;;;;5075309;28;20475;-57
2022/09/28 13:57:46;;;;;;;1.57;1.47;;;;;;;;;;5075241;28;20475;-56
2022/09/28 14:00:17;;;;;;;1.40;1.30;;;;;;;;;;5074908;28;20443;-57
2022/09/28 14:02:45;;;;;;;1.43;1.33;;;;;;;;;;5075060;28;20538;-57
2022/09/28 14:05:41;;;;;;;2.33;1.60;;;;;;;;;;5074775;28;20570;-56
2022/09/28 14:08:24;;;;;;;1.97;1.67;;;;;;;;;;5074812;28;20466;-57
2022/09/28 14:10:53;;;;;;;4.40;1.43;;;;;;;;;;5074987;28;20522;-57
2022/09/28 14:13:38;;;;;;;1.40;1.30;;;;;;;;;;5074690;28;20538;-56
2022/09/28 14:16:20;;;;;;;2.37;1.63;;;;;;;;;;5073822;28;20447;-58
2022/09/28 14:18:50;;;;;;;1.70;1.60;;;;;;;;;;5074807;28;20455;-57
2022/09/28 14:21:32;;;;;;;1.67;1.57;;;;;;;;;;5074450;28;20472;-59
2022/09/28 14:24:04;;;;;;;2.10;1.90;;;;;;;;;;5074565;28;20815;-58
2022/09/28 14:26:42;;;;;;;2.40;2.00;;;;;;;;;;5074400;28;20451;-58
2022/09/28 14:29:17;;;;;;;2.23;2.03;;;;;;;;;;5074306;28;20538;-59
2022/09/28 14:31:44;;;;;;;1.60;1.50;;;;;;;;;;5074573;28;20453;-59
2022/09/28 14:34:24;;;;;;;2.30;2.10;;;;;;;;;;5074406;28;20470;-57
2022/09/28 14:42:23;;;;;;;1.47;1.30;;;;;;;;;;5074060;28;20438;-58
2022/09/28 14:45:20;;;;;;;2.13;1.50;;;;;;;;;;5074093;28;20507;-58
2022/09/28 14:48:12;;;;;;;2.27;2.07;;;;;;;;;;5074111;28;20447;-58
2022/09/28 14:50:39;;;;;;;1.20;1.10;;;;;;;;;;5074093;28;20443;-58
2022/09/28 14:53:06;;;;;;;1.73;1.10;;;;;;;;;;5074100;28;20452;-58
2022/09/28 14:55:35;;;;;;;2.07;1.20;;;;;;;;;;5073903;28;20454;-58
2022/09/28 14:58:04;;;;;;;1.47;1.37;;;;;;;;;;5073947;28;20491;-57
2022/09/28 15:00:31;;;;;;;1.40;1.20;;;;;;;;;;5073744;28;20456;-58
2022/09/28 15:03:01;;;;;;;1.30;1.20;;;;;;;;;;5072873;28;20452;-59
2022/09/28 15:05:28;;;;;;;3.57;1.30;;;;;;;;;;5073156;28;20479;-58
2022/09/28 15:07:56;;;;;;;3.93;1.37;;;;;;;;;;5073230;28;20443;-57
2022/09/28 15:10:25;;;;;;;1.83;1.20;;;;;;;;;;5073055;28;20440;-56
2022/09/28 15:12:54;;;;;;;1.27;1.00;;;;;;;;;;5073006;28;20483;-57
2022/09/28 15:15:27;;;;;;;1.40;1.30;;;;;;;;;;5073050;28;20444;-57